sensor_id;sensor_type;location;lat;lon;timestamp;pressure;altitude;pressure_sealevel;temperature;humidity
39301;BME280;25019;42.626;23.380;2022-12-22T00:01:26;94682.56;;;-1.70;92.90
39301;BME280;25019;42.626;23.380;2022-12-22T00:04:10;94683.53;;;-1.71;92.31
39301;BME280;25019;42.626;23.380;2022-12-22T00:06:55;94676.22;;;-1.76;92.06
39301;BME280;25019;42.626;23.380;2022-12-22T00:09:39;94675.41;;;-1.76;92.02
39301;BME280;25019;42.626;23.380;2022-12-22T00:12:23;94680.78;;;-1.78;91.91
39301;BME280;25019;42.626;23.380;2022-12-22T00:15:13;94670.03;;;-1.83;91.79
39301;BME280;25019;42.626;23.380;2022-12-22T00:17:58;94670.22;;;-1.85;92.80
39301;BME280;25019;42.626;23.380;2022-12-22T00:20:43;94657.03;;;-1.91;92.40
39301;BME280;25019;42.626;23.380;2022-12-22T00:23:27;94675.41;;;-1.85;91.72
39301;BME280;25019;42.626;23.380;2022-12-22T00:26:12;94675.75;;;-1.88;91.37
39301;BME280;25019;42.626;23.380;2022-12-22T00:28:56;94678.50;;;-1.89;91.41
39301;BME280;25019;42.626;23.380;2022-12-22T00:31:40;94678.03;;;-1.93;91.69
39301;BME280;25019;42.626;23.380;2022-12-22T00:34:26;94683.72;;;-1.89;91.62
39301;BME280;25019;42.626;23.380;2022-12-22T00:37:12;94676.06;;;-1.91;91.82
39301;BME280;25019;42.626;23.380;2022-12-22T00:39:57;94595.56;;;-2.42;90.95
39301;BME280;25019;42.626;23.380;2022-12-22T00:42:42;94669.56;;;-1.95;91.04
39301;BME280;25019;42.626;23.380;2022-12-22T00:45:26;94674.91;;;-1.88;91.26
39301;BME280;25019;42.626;23.380;2022-12-22T00:48:21;94670.38;;;-1.86;91.31
39301;BME280;25019;42.626;23.380;2022-12-22T00:51:07;94662.06;;;-1.90;90.98
39301;BME280;25019;42.626;23.380;2022-12-22T00:53:51;94668.72;;;-1.87;90.31
39301;BME280;25019;42.626;23.380;2022-12-22T00:56:36;94668.59;;;-1.86;90.89
39301;BME280;25019;42.626;23.380;2022-12-22T00:59:20;94666.78;;;-1.85;91.03
39301;BME280;25019;42.626;23.380;2022-12-22T01:02:05;94660.44;;;-1.91;90.73
39301;BME280;25019;42.626;23.380;2022-12-22T01:04:49;94612.31;;;-2.20;90.77
39301;BME280;25019;42.626;23.380;2022-12-22T01:07:33;94665.16;;;-1.86;90.53
39301;BME280;25019;42.626;23.380;2022-12-22T01:10:19;94655.72;;;-1.87;90.81
39301;BME280;25019;42.626;23.380;2022-12-22T01:13:13;94647.25;;;-1.89;91.10
39301;BME280;25019;42.626;23.380;2022-12-22T01:15:58;94642.22;;;-1.91;90.54
39301;BME280;25019;42.626;23.380;2022-12-22T01:18:43;94588.75;;;-2.27;90.90
39301;BME280;25019;42.626;23.380;2022-12-22T01:21:27;94578.34;;;-2.35;91.16
39301;BME280;25019;42.626;23.380;2022-12-22T01:24:13;94636.22;;;-2.00;91.55
39301;BME280;25019;42.626;23.380;2022-12-22T01:26:57;94619.16;;;-2.19;91.30
39301;BME280;25019;42.626;23.380;2022-12-22T01:29:42;94626.63;;;-2.16;91.16
39301;BME280;25019;42.626;23.380;2022-12-22T01:32:26;94549.41;;;-2.65;90.81
39301;BME280;25019;42.626;23.380;2022-12-22T01:35:25;94625.97;;;-2.18;91.44
39301;BME280;25019;42.626;23.380;2022-12-22T01:38:10;94633.47;;;-2.15;91.37
39301;BME280;25019;42.626;23.380;2022-12-22T01:40:56;94626.31;;;-2.21;91.63
39301;BME280;25019;42.626;23.380;2022-12-22T01:43:41;94634.13;;;-2.21;92.24
39301;BME280;25019;42.626;23.380;2022-12-22T01:46:28;94630.06;;;-2.23;92.16
39301;BME280;25019;42.626;23.380;2022-12-22T01:49:18;94480.66;;;-3.20;92.17
39301;BME280;25019;42.626;23.380;2022-12-22T01:52:05;94574.63;;;-2.65;92.41
39301;BME280;25019;42.626;23.380;2022-12-22T01:54:51;94627.94;;;-2.28;92.96
39301;BME280;25019;42.626;23.380;2022-12-22T01:57:37;94633.63;;;-2.24;93.02
39301;BME280;25019;42.626;23.380;2022-12-22T02:00:21;94624.69;;;-2.22;93.49
39301;BME280;25019;42.626;23.380;2022-12-22T02:03:16;94625.19;;;-2.27;94.75
39301;BME280;25019;42.626;23.380;2022-12-22T02:06:32;94626.31;;;-2.29;95.83
39301;BME280;25019;42.626;23.380;2022-12-22T02:09:45;94635.09;;;-2.30;96.73
39301;BME280;25019;42.626;23.380;2022-12-22T02:12:49;94628.09;;;-2.30;97.47
39301;BME280;25019;42.626;23.380;2022-12-22T02:15:56;94547.31;;;-2.78;96.69
39301;BME280;25019;42.626;23.380;2022-12-22T02:18:50;94627.28;;;-2.30;96.96
39301;BME280;25019;42.626;23.380;2022-12-22T02:22:10;94633.78;;;-2.26;96.29
39301;BME280;25019;42.626;23.380;2022-12-22T02:25:25;94633.97;;;-2.28;95.74
39301;BME280;25019;42.626;23.380;2022-12-22T02:28:12;94629.72;;;-2.29;95.07
39301;BME280;25019;42.626;23.380;2022-12-22T02:30:57;94630.53;;;-2.28;94.66
39301;BME280;25019;42.626;23.380;2022-12-22T02:33:41;94629.56;;;-2.27;94.11
39301;BME280;25019;42.626;23.380;2022-12-22T02:37:00;94629.41;;;-2.26;93.77
39301;BME280;25019;42.626;23.380;2022-12-22T02:43:22;94621.75;;;-2.27;93.34
39301;BME280;25019;42.626;23.380;2022-12-22T02:46:25;94621.41;;;-2.32;93.39
39301;BME280;25019;42.626;23.380;2022-12-22T02:49:15;94630.72;;;-2.30;93.21
39301;BME280;25019;42.626;23.380;2022-12-22T02:52:12;94535.25;;;-2.87;93.30
39301;BME280;25019;42.626;23.380;2022-12-22T02:54:59;94613.94;;;-2.35;93.64
39301;BME280;25019;42.626;23.380;2022-12-22T02:57:44;94616.41;;;-2.34;93.59
39301;BME280;25019;42.626;23.380;2022-12-22T03:00:28;94614.63;;;-2.42;93.69
39301;BME280;25019;42.626;23.380;2022-12-22T03:03:13;94623.38;;;-2.34;94.49
39301;BME280;25019;42.626;23.380;2022-12-22T03:05:57;94625.31;;;-2.36;94.55
39301;BME280;25019;42.626;23.380;2022-12-22T03:08:41;94625.66;;;-2.39;95.48
39301;BME280;25019;42.626;23.380;2022-12-22T03:11:26;94611.81;;;-2.48;96.32
39301;BME280;25019;42.626;23.380;2022-12-22T03:14:10;94618.66;;;-2.39;96.66
39301;BME280;25019;42.626;23.380;2022-12-22T03:16:54;94603.72;;;-2.53;96.78
39301;BME280;25019;42.626;23.380;2022-12-22T03:19:38;94625.66;;;-2.39;97.35
39301;BME280;25019;42.626;23.380;2022-12-22T03:22:22;94627.44;;;-2.40;97.34
39301;BME280;25019;42.626;23.380;2022-12-22T03:25:07;94611.66;;;-2.55;98.08
39301;BME280;25019;42.626;23.380;2022-12-22T03:27:51;94617.69;;;-2.54;98.30
39301;BME280;25019;42.626;23.380;2022-12-22T03:30:17;94557.69;;;-2.94;98.40
39301;BME280;25019;42.626;23.380;2022-12-22T03:32:42;94558.19;;;-2.91;98.33
39301;BME280;25019;42.626;23.380;2022-12-22T03:35:08;94548.94;;;-2.93;98.41
39301;BME280;25019;42.626;23.380;2022-12-22T03:37:34;94524.50;;;-3.17;98.52
39301;BME280;25019;42.626;23.380;2022-12-22T03:39:59;94597.03;;;-2.73;98.60
39301;BME280;25019;42.626;23.380;2022-12-22T03:42:25;94619.78;;;-2.58;98.47
39301;BME280;25019;42.626;23.380;2022-12-22T03:45:09;94625.31;;;-2.61;98.86
39301;BME280;25019;42.626;23.380;2022-12-22T03:47:53;94626.63;;;-2.65;99.09
39301;BME280;25019;42.626;23.380;2022-12-22T03:50:19;94620.13;;;-2.69;98.73
39301;BME280;25019;42.626;23.380;2022-12-22T03:52:44;94625.47;;;-2.71;99.02
39301;BME280;25019;42.626;23.380;2022-12-22T03:55:10;94622.06;;;-2.72;99.03
39301;BME280;25019;42.626;23.380;2022-12-22T03:57:35;94623.84;;;-2.72;99.23
39301;BME280;25019;42.626;23.380;2022-12-22T04:00:01;94625.47;;;-2.71;99.06
39301;BME280;25019;42.626;23.380;2022-12-22T04:02:37;94623.38;;;-2.67;98.88
39301;BME280;25019;42.626;23.380;2022-12-22T04:05:03;94620.91;;;-2.69;98.52
39301;BME280;25019;42.626;23.380;2022-12-22T04:07:28;94625.00;;;-2.66;98.25
39301;BME280;25019;42.626;23.380;2022-12-22T04:09:54;94625.78;;;-2.66;98.22
39301;BME280;25019;42.626;23.380;2022-12-22T04:12:38;94564.50;;;-3.02;98.14
39301;BME280;25019;42.626;23.380;2022-12-22T04:15:23;94621.25;;;-2.64;98.03
39301;BME280;25019;42.626;23.380;2022-12-22T04:17:49;94606.47;;;-2.72;97.93
39301;BME280;25019;42.626;23.380;2022-12-22T04:20:15;94593.63;;;-2.81;97.52
39301;BME280;25019;42.626;23.380;2022-12-22T04:22:41;94588.06;;;-2.78;97.22
39301;BME280;25019;42.626;23.380;2022-12-22T04:25:07;94615.41;;;-2.66;97.09
39301;BME280;25019;42.626;23.380;2022-12-22T04:27:33;94613.44;;;-2.72;97.66
39301;BME280;25019;42.626;23.380;2022-12-22T04:29:58;94596.53;;;-2.76;97.73
39301;BME280;25019;42.626;23.380;2022-12-22T04:32:24;94607.91;;;-2.69;97.23
39301;BME280;25019;42.626;23.380;2022-12-22T04:34:49;94609.72;;;-2.69;97.46
39301;BME280;25019;42.626;23.380;2022-12-22T04:37:15;94527.78;;;-3.23;97.08
39301;BME280;25019;42.626;23.380;2022-12-22T04:39:41;94610.38;;;-2.67;96.68
39301;BME280;25019;42.626;23.380;2022-12-22T04:42:06;94604.19;;;-2.75;96.21
39301;BME280;25019;42.626;23.380;2022-12-22T04:44:32;94613.28;;;-2.71;95.91
39301;BME280;25019;42.626;23.380;2022-12-22T04:46:57;94613.13;;;-2.69;95.84
39301;BME280;25019;42.626;23.380;2022-12-22T04:49:23;94613.13;;;-2.69;95.36
39301;BME280;25019;42.626;23.380;2022-12-22T04:51:48;94554.25;;;-3.11;95.14
39301;BME280;25019;42.626;23.380;2022-12-22T04:54:14;94562.84;;;-3.11;95.10
39301;BME280;25019;42.626;23.380;2022-12-22T04:56:40;94611.31;;;-2.77;95.32
39301;BME280;25019;42.626;23.380;2022-12-22T04:59:05;94626.44;;;-2.72;96.01
39301;BME280;25019;42.626;23.380;2022-12-22T05:01:31;94557.31;;;-3.16;96.18
39301;BME280;25019;42.626;23.380;2022-12-22T05:03:57;94578.63;;;-2.96;96.50
39301;BME280;25019;42.626;23.380;2022-12-22T05:06:22;94543.00;;;-3.20;96.56
39301;BME280;25019;42.626;23.380;2022-12-22T05:08:48;94615.88;;;-2.71;96.48
39301;BME280;25019;42.626;23.380;2022-12-22T05:11:13;94615.56;;;-2.76;95.97
39301;BME280;25019;42.626;23.380;2022-12-22T05:13:39;94612.28;;;-2.78;96.16
39301;BME280;25019;42.626;23.380;2022-12-22T05:16:10;94547.25;;;-3.19;96.09
39301;BME280;25019;42.626;23.380;2022-12-22T05:18:36;94610.50;;;-2.77;96.22
39301;BME280;25019;42.626;23.380;2022-12-22T05:21:08;94614.91;;;-2.78;96.45
39301;BME280;25019;42.626;23.380;2022-12-22T05:23:34;94620.28;;;-2.79;96.97
39301;BME280;25019;42.626;23.380;2022-12-22T05:25:59;94546.59;;;-3.29;97.71
39301;BME280;25019;42.626;23.380;2022-12-22T05:28:25;94625.94;;;-2.84;98.49
39301;BME280;25019;42.626;23.380;2022-12-22T05:30:51;94620.72;;;-2.84;99.17
39301;BME280;25019;42.626;23.380;2022-12-22T05:33:18;94615.69;;;-2.86;99.56
39301;BME280;25019;42.626;23.380;2022-12-22T05:35:43;94623.66;;;-2.87;99.95
39301;BME280;25019;42.626;23.380;2022-12-22T05:38:09;94589.50;;;-3.09;100.00
39301;BME280;25019;42.626;23.380;2022-12-22T05:40:35;94618.44;;;-2.87;100.00
39301;BME280;25019;42.626;23.380;2022-12-22T05:43:00;94614.38;;;-2.90;100.00
39301;BME280;25019;42.626;23.380;2022-12-22T05:45:26;94619.28;;;-2.87;100.00
39301;BME280;25019;42.626;23.380;2022-12-22T05:47:51;94615.03;;;-2.88;100.00
39301;BME280;25019;42.626;23.380;2022-12-22T05:50:21;94558.94;;;-3.23;100.00
39301;BME280;25019;42.626;23.380;2022-12-22T05:52:56;94623.19;;;-2.82;100.00
39301;BME280;25019;42.626;23.380;2022-12-22T05:55:22;94623.84;;;-2.80;100.00
39301;BME280;25019;42.626;23.380;2022-12-22T05:57:47;94499.91;;;-3.56;100.00
39301;BME280;25019;42.626;23.380;2022-12-22T06:00:15;94615.88;;;-2.79;100.00
39301;BME280;25019;42.626;23.380;2022-12-22T06:02:42;94621.06;;;-2.79;100.00
39301;BME280;25019;42.626;23.380;2022-12-22T06:05:08;94623.66;;;-2.79;100.00
39301;BME280;25019;42.626;23.380;2022-12-22T06:07:34;94626.09;;;-2.86;100.00
39301;BME280;25019;42.626;23.380;2022-12-22T06:10:00;94604.63;;;-2.96;100.00
39301;BME280;25019;42.626;23.380;2022-12-22T06:12:25;94536.66;;;-3.34;100.00
39301;BME280;25019;42.626;23.380;2022-12-22T06:14:51;94625.63;;;-2.73;99.70
39301;BME280;25019;42.626;23.380;2022-12-22T06:17:17;94551.31;;;-3.17;99.20
39301;BME280;25019;42.626;23.380;2022-12-22T06:19:42;94622.38;;;-2.75;98.29
39301;BME280;25019;42.626;23.380;2022-12-22T06:22:08;94623.38;;;-2.67;97.80
39301;BME280;25019;42.626;23.380;2022-12-22T06:24:33;94627.09;;;-2.62;97.30
39301;BME280;25019;42.626;23.380;2022-12-22T06:26:59;94630.84;;;-2.56;97.05
39301;BME280;25019;42.626;23.380;2022-12-22T06:29:25;94534.44;;;-3.12;96.89
39301;BME280;25019;42.626;23.380;2022-12-22T06:31:51;94626.97;;;-2.44;96.99
39301;BME280;25019;42.626;23.380;2022-12-22T06:34:17;94625.31;;;-2.36;96.93
39301;BME280;25019;42.626;23.380;2022-12-22T06:36:44;94619.00;;;-2.34;96.50
39301;BME280;25019;42.626;23.380;2022-12-22T06:39:11;94545.19;;;-2.82;96.44
39301;BME280;25019;42.626;23.380;2022-12-22T06:41:37;94634.25;;;-2.14;96.51
39301;BME280;25019;42.626;23.380;2022-12-22T06:44:21;94614.75;;;-2.18;97.35
39301;BME280;25019;42.626;23.380;2022-12-22T06:46:47;94632.78;;;-2.00;97.94
39301;BME280;25019;42.626;23.380;2022-12-22T06:49:13;94640.59;;;-1.92;97.83
39301;BME280;25019;42.626;23.380;2022-12-22T06:51:38;94632.94;;;-1.85;97.77
39301;BME280;25019;42.626;23.380;2022-12-22T06:54:04;94635.34;;;-1.75;97.88
39301;BME280;25019;42.626;23.380;2022-12-22T06:56:30;94642.38;;;-1.68;97.20
39301;BME280;25019;42.626;23.380;2022-12-22T06:58:56;94568.41;;;-2.15;97.27
39301;BME280;25019;42.626;23.380;2022-12-22T07:01:21;94521.75;;;-2.41;97.51
39301;BME280;25019;42.626;23.380;2022-12-22T07:03:47;94629.81;;;-1.64;97.35
39301;BME280;25019;42.626;23.380;2022-12-22T07:06:12;94636.13;;;-1.50;97.19
39301;BME280;25019;42.626;23.380;2022-12-22T07:08:38;94645.22;;;-1.46;96.89
39301;BME280;25019;42.626;23.380;2022-12-22T07:11:04;94630.09;;;-1.51;96.72
39301;BME280;25019;42.626;23.380;2022-12-22T07:13:33;94642.94;;;-1.41;95.51
39301;BME280;25019;42.626;23.380;2022-12-22T07:16:00;94635.91;;;-1.32;94.60
39301;BME280;25019;42.626;23.380;2022-12-22T07:18:30;94614.09;;;-1.39;94.97
39301;BME280;25019;42.626;23.380;2022-12-22T07:20:57;94575.44;;;-1.59;95.42
39301;BME280;25019;42.626;23.380;2022-12-22T07:23:23;94633.53;;;-1.10;95.79
39301;BME280;25019;42.626;23.380;2022-12-22T07:25:49;94644.91;;;-1.03;95.98
39301;BME280;25019;42.626;23.380;2022-12-22T07:28:14;94647.63;;;-0.96;96.01
39301;BME280;25019;42.626;23.380;2022-12-22T07:30:40;94592.91;;;-1.36;96.42
39301;BME280;25019;42.626;23.380;2022-12-22T07:33:05;94645.00;;;-0.88;96.90
39301;BME280;25019;42.626;23.380;2022-12-22T07:35:31;94645.28;;;-0.83;96.52
39301;BME280;25019;42.626;23.380;2022-12-22T07:37:57;94626.41;;;-0.85;96.41
39301;BME280;25019;42.626;23.380;2022-12-22T07:40:22;94634.84;;;-0.83;96.57
39301;BME280;25019;42.626;23.380;2022-12-22T07:42:48;94632.53;;;-0.78;97.37
39301;BME280;25019;42.626;23.380;2022-12-22T07:45:18;94627.63;;;-0.72;96.32
39301;BME280;25019;42.626;23.380;2022-12-22T07:47:45;94631.00;;;-0.64;96.38
39301;BME280;25019;42.626;23.380;2022-12-22T07:50:14;94620.91;;;-0.67;95.33
39301;BME280;25019;42.626;23.380;2022-12-22T07:55:23;94627.53;;;-0.56;95.76
39301;BME280;25019;42.626;23.380;2022-12-22T07:57:49;94635.78;;;-0.44;94.84
39301;BME280;25019;42.626;23.380;2022-12-22T08:00:16;94630.31;;;-0.34;95.04
39301;BME280;25019;42.626;23.380;2022-12-22T08:02:42;94565.66;;;-0.70;93.81
39301;BME280;25019;42.626;23.380;2022-12-22T08:05:09;94633.63;;;-0.17;93.27
39301;BME280;25019;42.626;23.380;2022-12-22T08:07:35;94560.50;;;-0.55;93.19
39301;BME280;25019;42.626;23.380;2022-12-22T08:10:00;94602.09;;;-0.16;92.77
39301;BME280;25019;42.626;23.380;2022-12-22T08:12:26;94612.38;;;0.01;92.67
39301;BME280;25019;42.626;23.380;2022-12-22T08:14:54;94623.25;;;0.13;91.28
39301;BME280;25019;42.626;23.380;2022-12-22T08:17:19;94630.28;;;0.27;91.03
39301;BME280;25019;42.626;23.380;2022-12-22T08:19:45;94625.78;;;0.36;90.54
39301;BME280;25019;42.626;23.380;2022-12-22T08:22:10;94626.31;;;0.32;88.17
39301;BME280;25019;42.626;23.380;2022-12-22T08:24:36;94592.88;;;0.12;88.23
39301;BME280;25019;42.626;23.380;2022-12-22T08:27:05;94554.22;;;0.07;87.61
39301;BME280;25019;42.626;23.380;2022-12-22T08:29:46;94621.13;;;0.62;87.83
39301;BME280;25019;42.626;23.380;2022-12-22T08:32:12;94621.47;;;0.58;88.00
39301;BME280;25019;42.626;23.380;2022-12-22T08:34:38;94621.63;;;0.57;87.54
39301;BME280;25019;42.626;23.380;2022-12-22T08:37:06;94622.38;;;0.66;86.73
39301;BME280;25019;42.626;23.380;2022-12-22T08:39:36;94631.66;;;0.68;88.33
39301;BME280;25019;42.626;23.380;2022-12-22T08:42:05;94618.31;;;0.63;89.27
39301;BME280;25019;42.626;23.380;2022-12-22T08:44:31;94620.75;;;0.65;90.60
39301;BME280;25019;42.626;23.380;2022-12-22T08:46:58;94622.38;;;0.66;91.85
39301;BME280;25019;42.626;23.380;2022-12-22T08:49:24;94615.59;;;0.56;91.88
39301;BME280;25019;42.626;23.380;2022-12-22T08:51:51;94621.28;;;0.60;93.13
39301;BME280;25019;42.626;23.380;2022-12-22T08:54:17;94551.00;;;0.20;93.36
39301;BME280;25019;42.626;23.380;2022-12-22T08:56:43;94587.75;;;0.49;92.74
39301;BME280;25019;42.626;23.380;2022-12-22T08:59:10;94507.22;;;0.07;93.79
39301;BME280;25019;42.626;23.380;2022-12-22T09:01:38;94614.41;;;0.74;93.08
39301;BME280;25019;42.626;23.380;2022-12-22T09:04:04;94603.97;;;0.74;93.47
39301;BME280;25019;42.626;23.380;2022-12-22T09:06:31;94594.50;;;0.73;94.13
39301;BME280;25019;42.626;23.380;2022-12-22T09:09:01;94591.16;;;0.64;93.91
39301;BME280;25019;42.626;23.380;2022-12-22T09:11:28;94584.94;;;0.80;93.65
39301;BME280;25019;42.626;23.380;2022-12-22T09:13:56;94584.38;;;0.85;94.14
39301;BME280;25019;42.626;23.380;2022-12-22T09:16:23;94585.19;;;1.00;93.49
39301;BME280;25019;42.626;23.380;2022-12-22T09:18:50;94576.59;;;1.07;93.28
39301;BME280;25019;42.626;23.380;2022-12-22T09:21:16;94576.47;;;1.15;93.08
39301;BME280;25019;42.626;23.380;2022-12-22T09:23:42;94582.31;;;1.17;92.60
39301;BME280;25019;42.626;23.380;2022-12-22T09:26:12;94574.94;;;1.21;92.29
39301;BME280;25019;42.626;23.380;2022-12-22T09:28:38;94565.84;;;1.16;91.82
39301;BME280;25019;42.626;23.380;2022-12-22T09:31:04;94573.31;;;1.19;92.74
39301;BME280;25019;42.626;23.380;2022-12-22T09:33:31;94470.28;;;0.62;91.67
39301;BME280;25019;42.626;23.380;2022-12-22T09:35:57;94570.69;;;1.41;91.33
39301;BME280;25019;42.626;23.380;2022-12-22T09:38:35;94567.78;;;1.51;90.92
39301;BME280;25019;42.626;23.380;2022-12-22T09:41:24;94568.44;;;1.60;90.59
39301;BME280;25019;42.626;23.380;2022-12-22T09:43:50;94539.97;;;1.50;90.38
39301;BME280;25019;42.626;23.380;2022-12-22T09:46:21;94557.59;;;1.63;89.24
39301;BME280;25019;42.626;23.380;2022-12-22T09:48:48;94567.19;;;1.77;89.26
39301;BME280;25019;42.626;23.380;2022-12-22T09:51:15;94559.56;;;1.83;87.96
39301;BME280;25019;42.626;23.380;2022-12-22T09:53:47;94435.88;;;1.02;87.06
39301;BME280;25019;42.626;23.380;2022-12-22T09:56:16;94554.81;;;1.93;86.27
39301;BME280;25019;42.626;23.380;2022-12-22T09:58:43;94561.97;;;2.06;86.51
39301;BME280;25019;42.626;23.380;2022-12-22T10:06:46;94544.84;;;2.10;84.90
39301;BME280;25019;42.626;23.380;2022-12-22T10:09:21;94538.63;;;2.11;84.79
39301;BME280;25019;42.626;23.380;2022-12-22T10:11:58;94519.13;;;2.20;84.52
39301;BME280;25019;42.626;23.380;2022-12-22T10:14:32;94519.97;;;2.28;83.98
39301;BME280;25019;42.626;23.380;2022-12-22T10:17:30;94514.97;;;2.39;82.92
39301;BME280;25019;42.626;23.380;2022-12-22T10:22:49;94505.97;;;2.55;82.28
39301;BME280;25019;42.626;23.380;2022-12-22T10:25:35;94505.19;;;2.55;83.09
39301;BME280;25019;42.626;23.380;2022-12-22T10:28:05;94479.75;;;2.49;82.46
39301;BME280;25019;42.626;23.380;2022-12-22T10:30:35;94492.91;;;2.62;82.85
39301;BME280;25019;42.626;23.380;2022-12-22T10:35:54;94487.94;;;2.88;81.25
39301;BME280;25019;42.626;23.380;2022-12-22T10:38:32;94489.94;;;2.85;80.90
39301;BME280;25019;42.626;23.380;2022-12-22T10:41:01;94488.16;;;2.86;80.51
39301;BME280;25019;42.626;23.380;2022-12-22T10:43:30;94410.34;;;2.45;80.44
39301;BME280;25019;42.626;23.380;2022-12-22T10:45:57;94487.59;;;3.04;79.19
39301;BME280;25019;42.626;23.380;2022-12-22T10:48:32;94403.34;;;2.65;78.55
39301;BME280;25019;42.626;23.380;2022-12-22T10:50:59;94475.47;;;3.23;77.56
39301;BME280;25019;42.626;23.380;2022-12-22T10:53:51;94379.72;;;2.65;77.00
39301;BME280;25019;42.626;23.380;2022-12-22T10:56:26;94469.84;;;3.33;75.88
39301;BME280;25019;42.626;23.380;2022-12-22T10:59:10;94468.03;;;3.40;75.28
39301;BME280;25019;42.626;23.380;2022-12-22T11:01:38;94467.63;;;3.43;74.90
39301;BME280;25019;42.626;23.380;2022-12-22T11:06:46;94460.38;;;3.59;74.63
39301;BME280;25019;42.626;23.380;2022-12-22T11:09:12;94454.06;;;3.73;74.07
39301;BME280;25019;42.626;23.380;2022-12-22T11:11:55;94448.41;;;3.77;73.10
39301;BME280;25019;42.626;23.380;2022-12-22T11:14:43;94440.31;;;3.78;72.26
39301;BME280;25019;42.626;23.380;2022-12-22T11:22:34;94435.41;;;4.09;71.24
39301;BME280;25019;42.626;23.380;2022-12-22T11:36:10;94428.41;;;4.41;70.36
39301;BME280;25019;42.626;23.380;2022-12-22T11:44:24;94419.44;;;4.62;67.91
39301;BME280;25019;42.626;23.380;2022-12-22T11:46:58;94356.69;;;4.27;67.42
39301;BME280;25019;42.626;23.380;2022-12-22T11:53:00;94419.50;;;4.88;65.76
39301;BME280;25019;42.626;23.380;2022-12-22T11:55:34;94406.13;;;4.89;65.67
39301;BME280;25019;42.626;23.380;2022-12-22T12:06:34;94402.66;;;5.21;64.46
39301;BME280;25019;42.626;23.380;2022-12-22T12:11:50;94407.25;;;5.32;63.29
39301;BME280;25019;42.626;23.380;2022-12-22T12:20:05;94397.34;;;5.53;62.04
39301;BME280;25019;42.626;23.380;2022-12-22T12:25:43;94390.03;;;5.74;62.25
39301;BME280;25019;42.626;23.380;2022-12-22T12:30:54;94390.72;;;5.88;61.38
39301;BME280;25019;42.626;23.380;2022-12-22T12:33:34;94390.66;;;5.94;60.71
39301;BME280;25019;42.626;23.380;2022-12-22T12:41:32;94385.25;;;6.08;60.02
39301;BME280;25019;42.626;23.380;2022-12-22T12:44:02;94372.31;;;6.06;59.62
39301;BME280;25019;42.626;23.380;2022-12-22T12:52:08;94378.25;;;6.20;59.47
39301;BME280;25019;42.626;23.380;2022-12-22T12:54:39;94370.69;;;6.24;59.23
39301;BME280;25019;42.626;23.380;2022-12-22T12:59:52;94367.44;;;6.40;58.87
39301;BME280;25019;42.626;23.380;2022-12-22T13:02:36;94365.16;;;6.44;58.71
39301;BME280;25019;42.626;23.380;2022-12-22T13:08:08;94363.56;;;6.43;60.08
39301;BME280;25019;42.626;23.380;2022-12-22T13:21:07;94366.47;;;6.35;59.98
39301;BME280;25019;42.626;23.380;2022-12-22T13:23:42;94367.22;;;6.42;60.05
39301;BME280;25019;42.626;23.380;2022-12-22T13:26:14;94360.22;;;6.48;60.06
39301;BME280;25019;42.626;23.380;2022-12-22T13:28:59;94359.78;;;6.51;59.68
39301;BME280;25019;42.626;23.380;2022-12-22T13:34:05;94356.97;;;6.34;60.85
39301;BME280;25019;42.626;23.380;2022-12-22T13:36:32;94363.84;;;6.35;61.24
39301;BME280;25019;42.626;23.380;2022-12-22T13:39:04;94354.56;;;6.32;61.01
39301;BME280;25019;42.626;23.380;2022-12-22T13:41:38;94353.09;;;6.36;61.17
39301;BME280;25019;42.626;23.380;2022-12-22T13:44:09;94358.94;;;6.38;60.86
39301;BME280;25019;42.626;23.380;2022-12-22T13:46:38;94302.78;;;6.00;61.36
39301;BME280;25019;42.626;23.380;2022-12-22T13:49:06;94308.94;;;5.94;61.66
39301;BME280;25019;42.626;23.380;2022-12-22T13:51:35;94361.44;;;6.14;62.57
39301;BME280;25019;42.626;23.380;2022-12-22T13:54:09;94355.09;;;6.04;63.30
39301;BME280;25019;42.626;23.380;2022-12-22T13:56:39;94350.09;;;5.95;64.21
39301;BME280;25019;42.626;23.380;2022-12-22T13:59:29;94334.91;;;5.91;64.11
39301;BME280;25019;42.626;23.380;2022-12-22T14:02:02;94353.53;;;5.96;64.44
39301;BME280;25019;42.626;23.380;2022-12-22T14:04:28;94359.91;;;5.88;64.59
39301;BME280;25019;42.626;23.380;2022-12-22T14:06:54;94328.75;;;5.60;65.46
39301;BME280;25019;42.626;23.380;2022-12-22T14:09:24;94357.81;;;5.72;65.82
39301;BME280;25019;42.626;23.380;2022-12-22T14:11:54;94302.56;;;5.28;66.42
39301;BME280;25019;42.626;23.380;2022-12-22T14:14:30;94354.97;;;5.54;66.93
39301;BME280;25019;42.626;23.380;2022-12-22T14:16:59;94350.34;;;5.50;67.58
39301;BME280;25019;42.626;23.380;2022-12-22T14:19:29;94344.34;;;5.43;67.67
39301;BME280;25019;42.626;23.380;2022-12-22T14:22:06;94345.56;;;5.40;68.44
39301;BME280;25019;42.626;23.380;2022-12-22T14:24:42;94344.03;;;5.32;67.85
39301;BME280;25019;42.626;23.380;2022-12-22T14:27:28;94344.00;;;5.14;69.29
39301;BME280;25019;42.626;23.380;2022-12-22T14:29:55;94238.47;;;4.46;69.17
39301;BME280;25019;42.626;23.380;2022-12-22T14:32:44;94343.84;;;5.08;71.02
39301;BME280;25019;42.626;23.380;2022-12-22T14:35:28;94286.53;;;4.60;71.32
39301;BME280;25019;42.626;23.380;2022-12-22T14:38:14;94342.38;;;4.87;72.29
39301;BME280;25019;42.626;23.380;2022-12-22T14:40:42;94351.50;;;4.85;71.59
39301;BME280;25019;42.626;23.380;2022-12-22T14:45:47;94343.09;;;4.69;73.61
39301;BME280;25019;42.626;23.380;2022-12-22T14:50:49;94351.28;;;4.54;74.29
39301;BME280;25019;42.626;23.380;2022-12-22T14:53:23;94351.09;;;4.49;74.64
39301;BME280;25019;42.626;23.380;2022-12-22T14:55:51;94347.72;;;4.42;75.19
39301;BME280;25019;42.626;23.380;2022-12-22T14:58:38;94350.81;;;4.32;76.05
39301;BME280;25019;42.626;23.380;2022-12-22T15:01:21;94356.50;;;4.29;76.85
39301;BME280;25019;42.626;23.380;2022-12-22T15:04:15;94354.09;;;4.20;76.52
39301;BME280;25019;42.626;23.380;2022-12-22T15:06:48;94351.50;;;4.14;77.22
39301;BME280;25019;42.626;23.380;2022-12-22T15:14:19;94358.03;;;3.91;79.19
39301;BME280;25019;42.626;23.380;2022-12-22T15:16:45;94355.25;;;3.79;79.56